Time;durP1;ratioP1;P1;durP2;ratioP2;P2;SDS_P1;SDS_P2;PMS_P1;PMS_P2;Temp;Humidity;BMP_temperature;BMP_pressure;BME280_temperature;BME280_humidity;BME280_pressure;Samples;Min_cycle;Max_cycle;Signal;HPM_P1;HPM_P2
2023/03/17 00:00:48;;;;;;;2.10;1.10;;;;;;;4.30;90.57;98269.53;5004733;28;20282;-52
2023/03/17 00:03:22;;;;;;;1.90;1.10;;;;;;;4.31;90.14;98272.94;5001712;28;20233;-54
2023/03/17 00:05:49;;;;;;;1.73;1.03;;;;;;;4.40;91.77;98273.06;5003810;28;20592;-54
2023/03/17 00:08:21;;;;;;;3.10;1.00;;;;;;;4.45;91.08;98272.69;5003464;28;20703;-54
2023/03/17 00:10:47;;;;;;;2.03;0.97;;;;;;;4.39;90.14;98257.66;5004575;28;20660;-53
2023/03/17 00:13:14;;;;;;;1.87;1.10;;;;;;;4.34;89.53;98259.78;5004518;28;20228;-52
2023/03/17 00:15:42;;;;;;;3.97;0.83;;;;;;;4.49;90.69;98262.94;5002274;28;20240;-54
2023/03/17 00:18:13;;;;;;;1.20;0.90;;;;;;;4.45;91.17;98262.34;5003866;28;20679;-54
2023/03/17 00:20:42;;;;;;;3.67;0.90;;;;;;;4.50;90.82;98262.81;5002312;28;20312;-52
2023/03/17 00:23:15;;;;;;;1.57;0.90;;;;;;;4.45;91.33;98261.53;5002493;28;20239;-52
2023/03/17 00:25:41;;;;;;;2.37;1.00;;;;;;;4.40;92.13;98259.31;5002735;28;20595;-54
2023/03/17 00:28:16;;;;;;;1.63;0.90;;;;;;;4.34;91.85;98257.19;5004222;28;20236;-55
2023/03/17 00:30:43;;;;;;;1.43;0.80;;;;;;;4.33;92.04;98258.13;4985640;28;20335;-53
2023/03/17 00:33:11;;;;;;;1.37;0.83;;;;;;;4.40;90.31;98254.13;5004434;28;20726;-54
2023/03/17 00:35:39;;;;;;;1.63;0.83;;;;;;;4.43;89.44;98252.16;4984517;28;20237;-55
2023/03/17 00:38:14;;;;;;;4.53;0.90;;;;;;;4.45;88.48;98259.75;4983760;28;20335;-53
2023/03/17 00:40:42;;;;;;;2.13;0.80;;;;;;;4.46;88.45;98260.59;4980861;28;20247;-52
2023/03/17 00:43:08;;;;;;;1.30;0.67;;;;;;;4.43;90.07;98271.97;5001786;28;20252;-55
2023/03/17 00:45:37;;;;;;;1.00;0.70;;;;;;;4.41;89.44;98276.44;4999823;28;20326;-53
2023/03/17 00:48:12;;;;;;;1.97;0.80;;;;;;;4.42;89.48;98276.34;4986630;28;20226;-53
2023/03/17 00:50:39;;;;;;;1.73;1.23;;;;;;;4.37;90.57;98280.22;4984367;28;20234;-54
2023/03/17 00:53:12;;;;;;;1.27;0.60;;;;;;;4.41;91.84;98273.88;5004750;28;20236;-53
2023/03/17 00:55:39;;;;;;;0.63;0.60;;;;;;;4.53;89.97;98272.09;4985504;28;20719;-55
2023/03/17 00:58:12;;;;;;;3.17;0.60;;;;;;;4.51;89.84;98281.72;4988266;28;20245;-53
2023/03/17 01:00:39;;;;;;;1.33;0.80;;;;;;;4.64;89.22;98274.66;4983685;28;20317;-54
2023/03/17 01:03:11;;;;;;;2.67;0.80;;;;;;;4.61;91.58;98277.50;5004935;28;20239;-54
2023/03/17 01:05:39;;;;;;;2.53;0.73;;;;;;;4.65;88.51;98276.31;4988593;28;20250;-53
2023/03/17 01:08:09;;;;;;;1.93;0.83;;;;;;;4.71;88.53;98285.31;5003144;28;20224;-55
2023/03/17 01:10:36;;;;;;;1.07;0.87;;;;;;;4.73;88.18;98281.69;4985692;28;20290;-52
2023/03/17 01:13:04;;;;;;;1.70;0.93;;;;;;;4.76;86.97;98265.09;4986207;28;20596;-54
2023/03/17 01:15:31;;;;;;;2.13;1.13;;;;;;;4.75;88.36;98265.22;4984230;28;20226;-54
2023/03/17 01:17:59;;;;;;;1.53;1.00;;;;;;;4.74;89.88;98264.38;5005223;28;20230;-53
2023/03/17 01:20:28;;;;;;;1.23;0.90;;;;;;;4.70;89.70;98261.25;4985102;28;20284;-52
2023/03/17 01:22:55;;;;;;;2.80;0.90;;;;;;;4.78;89.27;98257.19;5005499;28;20279;-54
2023/03/17 01:25:23;;;;;;;1.60;1.13;;;;;;;4.67;89.87;98256.31;5001784;28;20229;-53
2023/03/17 01:27:51;;;;;;;4.47;0.90;;;;;;;4.78;89.20;98249.44;5003470;28;20232;-54
2023/03/17 01:30:26;;;;;;;2.33;1.10;;;;;;;4.69;89.61;98243.25;4985393;28;20216;-54
2023/03/17 01:32:52;;;;;;;1.67;0.83;;;;;;;4.63;87.70;98230.81;4987857;28;20227;-54
2023/03/17 01:35:20;;;;;;;3.83;0.90;;;;;;;4.70;86.84;98227.63;4985071;28;20702;-54
2023/03/17 01:37:47;;;;;;;1.27;0.83;;;;;;;4.78;86.21;98229.59;4987453;28;20228;-52
2023/03/17 01:40:17;;;;;;;1.20;0.90;;;;;;;4.76;86.74;98228.88;5004281;28;20228;-55
2023/03/17 01:42:51;;;;;;;3.57;1.00;;;;;;;4.74;88.50;98223.03;4985024;28;20241;-55
2023/03/17 01:45:55;;;;;;;1.90;0.90;;;;;;;4.67;87.45;98227.88;4984743;28;20731;-55
2023/03/17 01:48:23;;;;;;;3.50;0.90;;;;;;;4.66;84.11;98221.06;4984295;28;20272;-54
2023/03/17 01:50:51;;;;;;;2.67;0.90;;;;;;;4.75;82.92;98219.50;4986686;28;20229;-55
2023/03/17 01:53:19;;;;;;;1.90;0.80;;;;;;;4.74;83.83;98217.84;4984479;28;20230;-54
2023/03/17 01:55:46;;;;;;;1.33;0.83;;;;;;;4.80;82.81;98216.53;5004903;28;20236;-54
2023/03/17 01:58:16;;;;;;;1.93;0.80;;;;;;;4.86;85.20;98210.84;4986181;28;20609;-55
2023/03/17 02:00:45;;;;;;;3.60;0.97;;;;;;;4.83;86.11;98214.53;4985835;28;20315;-55
2023/03/17 02:03:12;;;;;;;1.63;0.90;;;;;;;4.78;85.56;98219.25;4985950;28;20649;-55
2023/03/17 02:05:39;;;;;;;4.70;1.13;;;;;;;4.77;87.11;98220.19;4999816;28;20232;-54
2023/03/17 02:08:11;;;;;;;1.20;0.87;;;;;;;4.73;87.41;98235.16;5003288;28;20299;-53
2023/03/17 02:10:37;;;;;;;2.23;0.90;;;;;;;4.67;87.32;98230.47;5001885;28;20330;-54
2023/03/17 02:13:05;;;;;;;1.70;0.70;;;;;;;4.61;88.57;98233.53;5004591;28;20253;-52
2023/03/17 02:15:41;;;;;;;1.40;0.90;;;;;;;4.70;89.86;98231.97;5001509;28;20684;-53
2023/03/17 02:18:08;;;;;;;3.47;0.80;;;;;;;4.58;89.67;98224.25;4986986;28;20232;-54
2023/03/17 02:21:21;;;;;;;3.33;0.80;;;;;;;4.57;87.95;98229.56;5000949;28;20319;-54
2023/03/17 02:23:49;;;;;;;1.33;0.70;;;;;;;4.52;88.74;98229.91;4985161;28;20236;-55
2023/03/17 02:26:17;;;;;;;1.20;0.80;;;;;;;4.41;88.74;98222.19;5002075;28;20216;-53
2023/03/17 02:28:44;;;;;;;2.10;0.70;;;;;;;4.34;89.59;98221.03;4986544;28;20863;-55
2023/03/17 02:31:11;;;;;;;2.07;0.70;;;;;;;4.27;89.70;98213.75;5004163;28;20604;-54
2023/03/17 02:33:38;;;;;;;2.50;0.70;;;;;;;4.21;89.87;98216.00;4981825;28;20715;-53
2023/03/17 02:36:05;;;;;;;4.57;0.90;;;;;;;4.23;89.12;98196.88;4985778;28;20255;-52
2023/03/17 02:38:31;;;;;;;2.37;0.90;;;;;;;4.22;89.21;98203.00;4999849;28;20228;-53
2023/03/17 02:41:01;;;;;;;1.10;0.70;;;;;;;4.26;89.92;98193.22;5001382;28;20236;-53
2023/03/17 02:43:28;;;;;;;2.23;1.23;;;;;;;4.18;88.91;98198.16;4999162;28;20240;-55
2023/03/17 02:45:56;;;;;;;0.77;0.70;;;;;;;4.09;88.15;98194.56;5003350;28;20223;-53
2023/03/17 02:48:22;;;;;;;1.63;0.77;;;;;;;3.98;87.53;98187.63;5000998;28;20228;-52
2023/03/17 02:50:49;;;;;;;1.17;0.87;;;;;;;3.89;87.32;98178.84;5003442;28;20290;-54
2023/03/17 02:53:15;;;;;;;2.50;0.90;;;;;;;3.88;88.84;98181.53;5000604;28;20224;-54
2023/03/17 02:55:42;;;;;;;1.67;0.90;;;;;;;3.93;85.78;98177.66;5004350;28;20244;-54
2023/03/17 02:58:10;;;;;;;2.73;0.97;;;;;;;4.08;86.90;98174.84;5002198;28;20228;-54
2023/03/17 03:00:37;;;;;;;3.40;0.90;;;;;;;4.01;88.59;98177.06;5000006;28;20275;-52
2023/03/17 03:03:04;;;;;;;2.83;1.03;;;;;;;4.08;84.74;98169.66;5003628;28;20227;-52
2023/03/17 03:05:30;;;;;;;2.07;1.00;;;;;;;3.93;87.21;98172.50;5001508;28;20224;-53
2023/03/17 03:07:57;;;;;;;1.60;1.00;;;;;;;3.88;87.77;98173.78;5004681;28;20239;-52
2023/03/17 03:10:24;;;;;;;2.40;1.20;;;;;;;3.83;86.96;98166.41;5000996;28;20232;-52
2023/03/17 03:12:52;;;;;;;2.40;0.80;;;;;;;3.80;84.97;98169.22;5002018;28;20247;-52
2023/03/17 03:15:20;;;;;;;2.37;1.27;;;;;;;3.84;82.88;98168.06;4998500;28;20867;-53
2023/03/17 03:17:47;;;;;;;2.47;1.23;;;;;;;3.84;85.85;98170.63;5002219;28;20232;-54
2023/03/17 03:20:13;;;;;;;2.20;1.00;;;;;;;3.73;85.17;98168.88;5003743;28;20282;-52
2023/03/17 03:22:40;;;;;;;3.07;1.10;;;;;;;3.68;84.61;98164.06;4983222;28;20782;-53
2023/03/17 03:25:07;;;;;;;4.40;0.90;;;;;;;3.60;84.80;98157.88;5003462;28;20232;-55
2023/03/17 03:27:37;;;;;;;1.57;0.90;;;;;;;3.50;86.10;98163.75;5000621;28;20275;-52
2023/03/17 03:30:06;;;;;;;4.07;1.37;;;;;;;3.46;86.40;98164.91;5002258;28;21338;-55
2023/03/17 03:32:34;;;;;;;3.00;1.00;;;;;;;3.63;86.82;98171.34;4999945;28;20232;-55
2023/03/17 03:35:01;;;;;;;1.63;1.00;;;;;;;3.51;87.11;98169.72;5003615;28;20224;-53
2023/03/17 03:37:27;;;;;;;3.13;0.90;;;;;;;3.42;86.13;98173.81;5000250;28;20243;-52
2023/03/17 03:39:54;;;;;;;1.70;0.90;;;;;;;3.46;86.28;98174.41;5002708;28;20325;-53
2023/03/17 03:42:21;;;;;;;2.87;1.40;;;;;;;3.31;86.19;98174.63;4999536;28;20726;-54
2023/03/17 03:44:47;;;;;;;4.97;1.17;;;;;;;3.38;87.17;98175.78;5004070;28;20227;-52
2023/03/17 03:47:14;;;;;;;2.03;1.10;;;;;;;3.48;87.49;98167.34;4999370;28;20237;-54
2023/03/17 03:49:42;;;;;;;1.70;1.03;;;;;;;3.39;89.23;98174.88;5000791;28;20232;-52
2023/03/17 03:52:08;;;;;;;3.73;1.20;;;;;;;3.33;89.85;98179.69;5002015;28;20236;-54
2023/03/17 03:54:35;;;;;;;1.67;0.80;;;;;;;3.23;89.80;98180.38;5000114;28;22305;-52
2023/03/17 03:57:02;;;;;;;1.57;0.90;;;;;;;3.18;88.95;98179.09;5002470;28;20244;-52
2023/03/17 03:59:29;;;;;;;1.50;1.00;;;;;;;3.16;88.88;98183.53;5000104;28;20247;-52
2023/03/17 04:04:38;;;;;;;3.20;1.13;;;;;;;3.17;89.71;98188.56;5440601;23;20737;-53
2023/03/17 04:07:06;;;;;;;3.17;0.90;;;;;;;3.08;90.69;98190.09;4993066;28;20316;-52
2023/03/17 04:09:33;;;;;;;1.20;0.80;;;;;;;3.24;88.85;98188.91;4987834;28;20872;-55
2023/03/17 04:12:00;;;;;;;3.30;1.20;;;;;;;3.12;89.76;98195.00;4976856;28;20589;-52
2023/03/17 04:14:27;;;;;;;2.80;1.50;;;;;;;3.08;90.49;98190.09;4980066;28;20242;-54
2023/03/17 04:16:54;;;;;;;3.50;1.57;;;;;;;3.02;91.23;98190.53;4977691;28;20241;-55
2023/03/17 04:19:21;;;;;;;1.83;1.40;;;;;;;2.99;92.12;98198.50;4958047;28;20372;-52
2023/03/17 04:21:47;;;;;;;3.17;1.33;;;;;;;3.03;91.01;98197.34;4976264;28;20715;-52
2023/03/17 04:24:15;;;;;;;4.87;1.30;;;;;;;2.94;90.54;98185.13;4996011;28;20322;-55
2023/03/17 04:26:42;;;;;;;2.30;1.23;;;;;;;2.86;91.62;98183.09;4979384;28;20685;-52
2023/03/17 04:29:09;;;;;;;3.07;1.40;;;;;;;2.93;92.57;98178.31;4973320;28;20237;-52
2023/03/17 04:31:38;;;;;;;2.20;1.20;;;;;;;2.84;92.78;98176.41;5290168;23;20315;-54
2023/03/17 04:34:05;;;;;;;2.87;1.03;;;;;;;2.73;92.77;98175.44;4980086;28;20319;-55
2023/03/17 04:36:31;;;;;;;3.80;1.30;;;;;;;2.75;92.85;98178.72;4984722;28;20661;-54
2023/03/17 04:38:58;;;;;;;2.60;1.10;;;;;;;2.76;92.33;98176.97;4988826;28;20257;-55
2023/03/17 04:41:26;;;;;;;4.20;1.10;;;;;;;2.66;92.35;98175.06;4964089;28;20233;-55
2023/03/17 04:43:52;;;;;;;2.13;1.00;;;;;;;2.80;89.52;98176.66;4955250;28;20238;-55
2023/03/17 04:46:19;;;;;;;1.90;1.00;;;;;;;2.80;89.43;98188.69;4976600;23;20230;-61
2023/03/17 04:48:45;;;;;;;1.70;0.80;;;;;;;2.94;89.45;98187.69;4969218;28;20233;-60
2023/03/17 04:51:12;;;;;;;4.07;1.20;;;;;;;3.03;90.70;98184.44;4962481;28;20307;-60
2023/03/17 04:53:39;;;;;;;2.30;1.00;;;;;;;2.94;90.53;98185.94;4968349;28;20589;-60
2023/03/17 04:56:06;;;;;;;7.17;1.70;;;;;;;3.01;89.09;98199.19;4967826;28;20261;-60
2023/03/17 04:58:34;;;;;;;3.33;1.90;;;;;;;2.96;90.25;98193.56;4966490;28;20234;-60
2023/03/17 05:01:01;;;;;;;5.20;1.70;;;;;;;2.95;89.99;98194.50;4969649;28;20243;-60
2023/03/17 05:03:28;;;;;;;2.80;1.47;;;;;;;2.89;91.84;98187.22;4964047;28;20248;-60
2023/03/17 05:05:56;;;;;;;2.20;1.50;;;;;;;2.83;91.90;98192.81;4974407;28;20320;-61
2023/03/17 05:08:22;;;;;;;2.67;1.40;;;;;;;2.89;91.19;98184.63;4967832;28;20240;-60
2023/03/17 05:10:50;;;;;;;3.20;1.40;;;;;;;2.80;92.22;98180.97;4971421;28;20819;-60
2023/03/17 05:13:17;;;;;;;1.70;1.20;;;;;;;2.80;91.79;98186.13;4968066;28;20233;-61
2023/03/17 05:15:47;;;;;;;1.70;0.97;;;;;;;2.71;92.54;98181.63;4951358;28;20677;-60
2023/03/17 05:18:13;;;;;;;1.80;1.27;;;;;;;2.81;93.98;98182.59;4968418;28;20236;-61
2023/03/17 05:20:40;;;;;;;1.83;1.13;;;;;;;2.84;93.58;98176.41;4966510;28;20862;-61
2023/03/17 05:23:07;;;;;;;2.43;1.20;;;;;;;2.75;92.45;98178.72;4972391;28;20241;-59
2023/03/17 05:25:33;;;;;;;1.83;1.07;;;;;;;2.79;90.04;98179.31;4967413;28;20299;-61
2023/03/17 05:28:00;;;;;;;2.37;1.20;;;;;;;2.86;90.07;98183.09;4969438;28;20240;-61
2023/03/17 05:30:26;;;;;;;1.80;1.20;;;;;;;2.77;90.66;98194.06;4966428;28;20320;-60
2023/03/17 05:32:54;;;;;;;3.40;1.07;;;;;;;2.78;91.69;98201.72;4965297;28;20284;-59
2023/03/17 05:35:21;;;;;;;2.17;1.37;;;;;;;2.82;89.99;98202.28;4964927;28;20600;-61
2023/03/17 05:37:48;;;;;;;2.53;1.40;;;;;;;2.76;91.48;98219.03;4967354;28;20652;-60
2023/03/17 05:40:14;;;;;;;3.60;2.20;;;;;;;2.78;92.62;98234.38;4968041;28;20234;-60
2023/03/17 05:42:41;;;;;;;5.27;3.20;;;;;;;2.86;91.83;98239.81;4963520;28;20236;-60
2023/03/17 05:45:09;;;;;;;6.93;3.77;;;;;;;2.79;93.06;98249.75;4968300;28;20279;-60
2023/03/17 05:47:36;;;;;;;3.40;2.00;;;;;;;2.84;93.27;98244.25;4967079;28;20269;-60
2023/03/17 05:50:05;;;;;;;4.13;2.50;;;;;;;2.82;94.36;98235.00;4973814;28;20229;-60
2023/03/17 05:52:32;;;;;;;4.33;2.87;;;;;;;2.82;95.20;98237.56;4947773;28;20921;-60
2023/03/17 05:54:58;;;;;;;6.83;3.83;;;;;;;2.85;95.72;98237.34;4966842;28;20801;-60
2023/03/17 05:57:25;;;;;;;7.13;3.80;;;;;;;2.83;95.60;98231.47;4965016;28;20239;-60
2023/03/17 05:59:52;;;;;;;9.23;4.73;;;;;;;2.79;95.35;98220.56;4967208;28;20221;-61
2023/03/17 06:02:19;;;;;;;5.70;4.00;;;;;;;2.86;96.65;98218.38;4963613;28;20292;-60
2023/03/17 06:04:46;;;;;;;8.10;3.30;;;;;;;2.90;96.75;98219.78;4967926;28;20241;-59
2023/03/17 06:07:14;;;;;;;4.33;3.07;;;;;;;2.96;96.58;98216.78;4968513;28;20244;-60
2023/03/17 06:09:40;;;;;;;5.50;2.63;;;;;;;2.92;96.36;98213.56;4964959;28;20241;-60
2023/03/17 06:12:10;;;;;;;4.97;2.70;;;;;;;2.95;96.37;98212.53;4968890;28;20280;-60
2023/03/17 06:14:36;;;;;;;5.83;2.57;;;;;;;3.00;95.63;98217.34;4967306;28;20230;-61
2023/03/17 06:17:03;;;;;;;4.03;2.00;;;;;;;3.06;96.53;98216.91;4968443;28;20235;-60
2023/03/17 06:19:30;;;;;;;2.43;1.60;;;;;;;3.21;95.50;98218.34;4964858;28;20225;-60
2023/03/17 06:21:56;;;;;;;2.43;1.80;;;;;;;3.25;95.69;98212.03;4966616;28;20242;-60
2023/03/17 06:24:24;;;;;;;3.63;1.77;;;;;;;3.34;95.37;98210.50;4964731;28;20665;-61
2023/03/17 06:26:51;;;;;;;2.90;2.00;;;;;;;3.46;95.49;98203.63;4967328;28;20235;-61
2023/03/17 06:29:19;;;;;;;3.90;1.90;;;;;;;3.59;93.51;98218.16;4965765;28;20224;-61
2023/03/17 06:31:49;;;;;;;4.40;3.13;;;;;;;3.69;92.37;98212.19;4967464;28;20850;-60
2023/03/17 06:34:16;;;;;;;3.23;2.30;;;;;;;3.76;92.07;98212.53;4963158;28;20236;-61
2023/03/17 06:36:44;;;;;;;5.90;2.67;;;;;;;3.83;92.40;98220.63;4967525;28;20311;-60
2023/03/17 06:39:11;;;;;;;5.27;3.80;;;;;;;3.91;91.73;98215.69;4965977;28;20222;-61
2023/03/17 06:41:39;;;;;;;6.10;2.27;;;;;;;3.98;92.28;98229.78;4963405;28;20309;-60
2023/03/17 06:44:06;;;;;;;3.03;1.97;;;;;;;4.09;90.52;98239.28;4966338;28;20289;-61
2023/03/17 06:46:33;;;;;;;2.73;1.70;;;;;;;4.28;89.91;98240.44;4963118;28;20232;-60
2023/03/17 06:49:00;;;;;;;2.60;1.43;;;;;;;4.33;89.77;98234.88;4970606;28;20226;-61
2023/03/17 06:51:27;;;;;;;4.30;1.87;;;;;;;4.36;89.45;98226.88;4965547;28;21045;-60
2023/03/17 06:53:53;;;;;;;3.73;1.57;;;;;;;4.41;89.48;98224.75;4966732;28;20234;-60
2023/03/17 06:56:20;;;;;;;9.43;1.90;;;;;;;4.45;89.64;98231.34;4946892;28;20689;-60
2023/03/17 06:58:48;;;;;;;2.90;1.80;;;;;;;4.47;89.94;98226.88;4966439;28;20234;-59
2023/03/17 07:01:14;;;;;;;2.30;1.70;;;;;;;4.55;88.96;98234.84;4965506;28;20837;-60
2023/03/17 07:03:41;;;;;;;5.40;2.60;;;;;;;4.57;88.42;98230.34;4964331;28;20232;-60
2023/03/17 07:06:08;;;;;;;5.70;3.10;;;;;;;4.66;87.84;98228.81;4967964;28;20227;-59
2023/03/17 07:08:35;;;;;;;4.93;3.10;;;;;;;4.68;88.60;98219.19;4964446;28;20243;-60
2023/03/17 07:11:03;;;;;;;6.47;2.80;;;;;;;4.66;88.79;98217.66;4942630;28;20231;-60
2023/03/17 07:13:34;;;;;;;8.03;3.60;;;;;;;4.69;88.84;98226.00;4962842;28;20280;-60
2023/03/17 07:16:02;;;;;;;9.50;4.80;;;;;;;4.77;89.20;98227.13;4966718;28;20245;-59
2023/03/17 07:18:30;;;;;;;3.47;1.83;;;;;;;4.75;90.32;98227.25;4963603;28;20328;-59
2023/03/17 07:20:57;;;;;;;2.97;1.80;;;;;;;4.79;89.85;98231.22;4967645;28;20448;-60
2023/03/17 07:23:24;;;;;;;2.30;1.33;;;;;;;4.91;89.15;98232.00;4963726;28;20350;-60
2023/03/17 07:25:51;;;;;;;2.87;1.33;;;;;;;4.95;89.19;98233.38;4956223;28;20228;-60
2023/03/17 07:28:20;;;;;;;2.03;1.60;;;;;;;5.11;87.25;98240.72;4965325;28;20705;-60
2023/03/17 07:30:48;;;;;;;2.83;1.63;;;;;;;5.21;89.43;98239.97;4966645;28;20230;-61
2023/03/17 07:33:19;;;;;;;7.13;1.60;;;;;;;5.43;81.28;98239.03;4967191;28;20235;-60
2023/03/17 07:35:47;;;;;;;3.10;1.60;;;;;;;5.57;81.69;98241.28;4966015;28;20269;-60
2023/03/17 07:38:14;;;;;;;3.07;1.40;;;;;;;5.68;80.60;98236.97;4966891;28;20336;-60
2023/03/17 07:40:41;;;;;;;2.70;1.67;;;;;;;5.76;79.60;98232.78;4964455;28;20321;-61
2023/03/17 07:43:08;;;;;;;3.30;1.33;;;;;;;5.75;82.04;98227.75;4951157;28;20229;-61
2023/03/17 07:45:35;;;;;;;2.80;1.50;;;;;;;5.83;78.81;98227.88;4968510;28;20232;-59
2023/03/17 07:48:02;;;;;;;5.23;2.20;;;;;;;5.86;82.12;98221.63;4973533;28;20230;-60
2023/03/17 07:50:30;;;;;;;2.47;1.63;;;;;;;5.89;84.96;98219.59;4954129;28;20284;-60
2023/03/17 07:52:57;;;;;;;2.00;1.27;;;;;;;5.92;84.03;98218.53;4952387;28;20312;-61
2023/03/17 07:55:24;;;;;;;2.50;1.40;;;;;;;6.02;81.53;98214.22;4967371;28;20847;-60
2023/03/17 07:57:52;;;;;;;3.33;1.70;;;;;;;6.18;78.75;98208.53;4970199;28;20327;-60
2023/03/17 08:00:20;;;;;;;2.53;1.50;;;;;;;6.38;77.35;98220.69;4967571;28;20280;-60
2023/03/17 08:02:47;;;;;;;4.77;1.40;;;;;;;6.56;77.79;98213.09;4969318;28;20338;-61
2023/03/17 08:05:14;;;;;;;2.03;1.20;;;;;;;6.74;75.58;98214.06;4970109;28;20230;-59
2023/03/17 08:07:42;;;;;;;1.90;1.30;;;;;;;6.96;76.04;98224.28;4967186;28;20236;-60
2023/03/17 08:10:11;;;;;;;3.70;1.63;;;;;;;7.16;76.95;98215.53;4969784;28;20316;-60
2023/03/17 08:12:38;;;;;;;2.43;1.60;;;;;;;7.26;76.62;98217.28;4937488;28;20278;-60
2023/03/17 08:15:09;;;;;;;1.83;1.27;;;;;;;7.38;76.76;98213.59;4970244;28;20337;-61
2023/03/17 08:17:36;;;;;;;1.90;1.40;;;;;;;7.47;75.24;98212.72;4965863;28;22436;-61
2023/03/17 08:20:04;;;;;;;3.30;1.30;;;;;;;7.63;73.05;98216.50;4952747;28;20777;-61
2023/03/17 08:22:31;;;;;;;2.67;1.47;;;;;;;7.84;73.00;98221.50;4966806;28;20801;-61
2023/03/17 08:24:59;;;;;;;3.20;2.10;;;;;;;8.05;67.33;98223.84;4970588;28;20704;-60
2023/03/17 08:27:25;;;;;;;8.40;3.17;;;;;;;8.39;69.58;98233.66;4968513;28;20227;-61
2023/03/17 08:29:52;;;;;;;9.23;4.37;;;;;;;8.58;72.36;98229.28;4971451;28;20687;-61
2023/03/17 08:32:19;;;;;;;8.63;4.77;;;;;;;8.67;73.72;98236.22;4966870;28;20235;-61
2023/03/17 08:34:47;;;;;;;7.20;4.30;;;;;;;8.80;71.75;98235.03;4972563;28;20594;-61
2023/03/17 08:37:13;;;;;;;10.93;5.53;;;;;;;8.88;72.96;98237.72;4966916;28;20628;-61
2023/03/17 08:39:40;;;;;;;9.03;5.40;;;;;;;9.01;71.57;98237.31;4968126;28;20647;-61
2023/03/17 08:42:08;;;;;;;7.40;4.50;;;;;;;9.05;67.62;98243.06;4969552;28;20652;-60
2023/03/17 08:44:35;;;;;;;8.50;4.70;;;;;;;9.11;67.25;98239.84;4967918;28;20219;-61
2023/03/17 08:47:02;;;;;;;8.63;4.90;;;;;;;9.17;66.35;98236.66;4972539;28;20316;-61
2023/03/17 08:49:29;;;;;;;7.97;4.53;;;;;;;9.27;64.68;98236.53;4967533;28;20244;-61
2023/03/17 08:51:56;;;;;;;8.53;4.20;;;;;;;9.39;62.91;98237.13;4969930;28;20241;-61
2023/03/17 08:54:23;;;;;;;6.30;3.97;;;;;;;9.44;61.44;98235.69;4968548;28;20226;-61
2023/03/17 08:56:49;;;;;;;7.30;4.30;;;;;;;9.53;61.68;98233.97;4968429;28;20238;-61
2023/03/17 08:59:17;;;;;;;8.63;4.33;;;;;;;9.60;61.54;98236.75;4968938;28;20240;-60
2023/03/17 09:01:44;;;;;;;8.77;4.47;;;;;;;9.63;60.20;98228.63;4968958;28;20298;-60
2023/03/17 09:04:11;;;;;;;9.60;5.17;;;;;;;9.70;61.83;98221.00;4968900;28;20742;-61
2023/03/17 09:06:37;;;;;;;9.87;5.50;;;;;;;9.80;62.67;98213.88;4968108;28;20642;-59
2023/03/17 09:09:05;;;;;;;9.50;5.50;;;;;;;9.88;62.06;98215.72;4955484;28;20238;-59
2023/03/17 09:11:32;;;;;;;9.77;5.33;;;;;;;9.95;62.32;98205.47;4967764;28;20235;-61
2023/03/17 09:13:59;;;;;;;11.03;5.53;;;;;;;10.03;61.42;98213.34;4967056;28;20229;-61
2023/03/17 09:16:28;;;;;;;10.93;5.90;;;;;;;10.04;60.29;98213.19;4968272;28;20329;-61
2023/03/17 09:18:55;;;;;;;8.33;5.20;;;;;;;10.09;61.31;98204.88;4968588;28;20326;-61
2023/03/17 09:21:22;;;;;;;10.10;6.37;;;;;;;10.18;62.40;98205.72;4966745;28;20323;-61
2023/03/17 09:23:49;;;;;;;12.83;6.80;;;;;;;10.19;62.81;98202.13;4970070;28;20228;-61
2023/03/17 09:26:16;;;;;;;14.13;7.70;;;;;;;10.21;62.25;98197.56;4968702;28;20232;-61
2023/03/17 09:28:43;;;;;;;10.13;5.93;;;;;;;10.18;63.14;98209.16;4967154;28;20260;-60
2023/03/17 09:31:11;;;;;;;11.67;6.70;;;;;;;10.10;61.95;98211.72;4969681;28;20247;-61
2023/03/17 09:33:40;;;;;;;19.37;7.13;;;;;;;10.01;63.78;98212.66;4966346;28;20248;-61
2023/03/17 09:36:08;;;;;;;13.10;7.70;;;;;;;9.99;63.36;98201.59;4969334;28;20245;-61
2023/03/17 09:38:34;;;;;;;14.37;6.70;;;;;;;10.01;65.13;98205.69;4966477;28;20231;-61
2023/03/17 09:41:31;;;;;;;13.17;6.13;;;;;;;10.22;61.18;98206.22;4970485;28;20683;-61
2023/03/17 09:44:07;;;;;;;11.27;6.30;;;;;;;10.52;61.71;98204.03;4946500;28;20221;-61
2023/03/17 09:46:46;;;;;;;12.17;6.13;;;;;;;10.84;60.32;98211.09;4965986;28;21161;-61
2023/03/17 09:49:19;;;;;;;11.17;5.90;;;;;;;11.06;57.34;98214.03;4967776;28;20319;-61
2023/03/17 09:51:46;;;;;;;9.50;5.47;;;;;;;11.45;57.03;98207.28;4963290;28;20236;-61
2023/03/17 09:54:18;;;;;;;7.93;4.93;;;;;;;11.64;55.15;98213.91;4967506;28;20236;-60
2023/03/17 09:56:56;;;;;;;12.20;5.80;;;;;;;11.84;54.28;98222.19;4964891;28;20226;-61
2023/03/17 09:59:30;;;;;;;9.47;5.00;;;;;;;11.85;54.09;98210.72;4959214;28;20244;-61
2023/03/17 10:01:57;;;;;;;9.43;4.77;;;;;;;12.03;53.92;98212.34;4967013;28;20288;-61
2023/03/17 10:04:25;;;;;;;7.57;4.63;;;;;;;12.22;55.07;98204.06;4964432;28;20238;-61
2023/03/17 10:06:55;;;;;;;9.00;4.77;;;;;;;12.39;54.21;98211.84;4949845;28;20255;-61
2023/03/17 10:09:29;;;;;;;7.03;4.80;;;;;;;12.76;52.56;98198.97;4966070;28;20228;-61
2023/03/17 10:12:08;;;;;;;10.77;5.50;;;;;;;12.79;51.80;98199.44;4967031;28;20280;-61
2023/03/17 10:14:47;;;;;;;6.80;4.40;;;;;;;13.18;51.66;98195.03;4962590;28;20752;-61
2023/03/17 10:17:18;;;;;;;11.47;5.07;;;;;;;13.28;50.52;98194.75;4950780;28;20225;-60
2023/03/17 10:19:55;;;;;;;10.67;5.10;;;;;;;13.42;50.68;98190.56;4967067;28;20240;-60
2023/03/17 10:22:28;;;;;;;7.57;4.73;;;;;;;13.55;51.66;98187.31;4966181;28;20236;-61
2023/03/17 10:25:01;;;;;;;7.47;4.77;;;;;;;13.57;51.38;98182.72;4971344;28;20680;-61
2023/03/17 10:27:31;;;;;;;7.90;4.93;;;;;;;13.57;50.26;98188.75;4966799;28;20235;-61
2023/03/17 10:29:57;;;;;;;7.63;5.47;;;;;;;13.56;51.09;98179.25;4970333;28;20706;-61
2023/03/17 10:32:26;;;;;;;8.43;5.30;;;;;;;13.53;51.12;98174.38;4965837;28;20236;-61
2023/03/17 10:34:56;;;;;;;8.57;5.70;;;;;;;13.53;50.48;98171.75;4967482;28;20238;-61
2023/03/17 10:37:25;;;;;;;14.27;5.70;;;;;;;13.35;50.72;98169.47;4965323;28;20234;-60
2023/03/17 10:39:54;;;;;;;10.37;5.13;;;;;;;13.50;51.21;98173.94;4969185;28;20317;-62
2023/03/17 10:42:23;;;;;;;9.50;5.40;;;;;;;13.42;51.89;98170.41;4967251;28;20748;-61
2023/03/17 10:44:54;;;;;;;7.17;4.80;;;;;;;13.58;51.60;98171.22;4987475;23;20233;-51
2023/03/17 10:47:31;;;;;;;9.53;5.80;;;;;;;13.67;51.14;98171.94;4996955;28;20230;-55
2023/03/17 10:50:04;;;;;;;13.03;5.77;;;;;;;13.73;51.08;98181.69;4991277;28;20699;-53
2023/03/17 10:52:35;;;;;;;12.17;6.03;;;;;;;13.66;50.90;98171.13;4971553;28;20249;-53
2023/03/17 10:55:05;;;;;;;7.73;4.97;;;;;;;13.71;52.46;98183.69;4970170;28;20235;-54
2023/03/17 10:57:36;;;;;;;10.67;5.70;;;;;;;13.85;51.35;98180.25;4967454;28;20222;-52
2023/03/17 11:00:15;;;;;;;8.30;5.87;;;;;;;13.74;54.20;98175.44;4979527;28;20236;-52
2023/03/17 11:02:46;;;;;;;9.93;5.17;;;;;;;14.07;51.55;98177.69;4987051;28;20245;-54
2023/03/17 11:05:21;;;;;;;8.20;4.77;;;;;;;14.22;50.85;98176.81;4984540;28;20258;-52
2023/03/17 11:07:57;;;;;;;11.33;5.43;;;;;;;14.21;52.99;98169.94;4988302;28;20234;-55
2023/03/17 11:10:27;;;;;;;12.13;6.03;;;;;;;14.35;51.27;98170.91;4987456;28;20249;-53
2023/03/17 11:12:59;;;;;;;11.23;5.83;;;;;;;14.31;52.04;98166.00;4970848;28;20364;-55
2023/03/17 11:15:32;;;;;;;8.07;5.53;;;;;;;14.28;51.26;98153.25;4976826;28;20324;-55
2023/03/17 11:18:01;;;;;;;10.33;5.30;;;;;;;14.42;51.52;98161.28;4990003;28;20682;-54
2023/03/17 11:20:39;;;;;;;8.87;5.73;;;;;;;14.52;51.28;98156.53;4988815;28;20232;-55
2023/03/17 11:23:14;;;;;;;8.37;5.83;;;;;;;14.68;50.43;98170.41;4980489;28;20232;-55
2023/03/17 11:25:46;;;;;;;8.87;6.07;;;;;;;14.70;49.90;98165.81;4994690;28;20321;-56
2023/03/17 11:28:19;;;;;;;10.90;6.70;;;;;;;14.70;52.47;98163.19;4980652;28;20244;-58
2023/03/17 11:30:58;;;;;;;7.30;5.20;;;;;;;15.11;52.03;98161.69;4995037;28;20275;-57
2023/03/17 11:33:34;;;;;;;9.23;6.30;;;;;;;15.07;49.13;98163.84;4994295;28;20236;-58
2023/03/17 11:36:09;;;;;;;7.17;5.40;;;;;;;15.11;49.61;98153.78;4996039;28;20276;-56
2023/03/17 11:38:43;;;;;;;11.10;5.93;;;;;;;15.26;49.14;98151.03;4984818;28;23272;-59
2023/03/17 11:41:35;;;;;;;9.70;5.80;;;;;;;15.29;50.41;98145.41;4992438;28;20239;-59
2023/03/17 11:44:20;;;;;;;6.33;5.07;;;;;;;15.61;49.32;98140.53;4972589;28;20719;-58
2023/03/17 11:46:56;;;;;;;14.00;6.10;;;;;;;15.73;49.43;98143.41;4975231;28;20242;-57
2023/03/17 11:49:28;;;;;;;11.10;6.07;;;;;;;15.69;47.75;98139.53;4972243;28;20296;-57